Meteo Giornale » Osservazioni meteo Italia » Bologna-Borgo Panigale

ore: 04:20 - Osservazioni Meteo Bologna-Borgo Panigale
Lat. 44° 32' N Lon. 11° 18' E Alt. 36 metri s.l.m.

sereno Europe/Rome

11 °C

Sereno

Temp. 24 Ore

10 °C

26 °C

Nord

3.7 Km/h

Dew point 9 °C

Umidità 87 %

Visibilità  10 Km

Il sole sorge alle ore 06:16

Il sole tramonta alle ore 20:09

Data e Ora Cielo e Fenomeni T °C DP °C Um. % Pres. hPa Vis. km Vento km/h
Oggi h: 04:20 sereno Sereno 11 9 87 1017 10 N 3.7
Oggi h: 03:50 sereno Sereno 11 9 87 1017 10 N 3.7
Oggi h: 03:20 sereno Sereno 11 8 81 1017 10 N 1.8
Oggi h: 02:50 sereno Sereno 10 8 87 1018 10 N 3.7
Oggi h: 02:20 sereno Sereno 10 8 87 1017 10 N 5.5
Oggi h: 01:50 sereno Sereno 11 9 87 1018 10 N 3.7
Oggi h: 01:20 sereno Sereno 12 9 81 1018 10 N 1.8
Oggi h: 00:50 sereno Sereno 12 8 76 1018 10 E 7.4
Oggi h: 00:20 sereno Sereno 12 7 71 1018 10 N 3.7
Ieri h: 23:50 sereno Sereno 14 9 71 1018 10 N 5.5
Ieri h: 23:20 sereno Sereno 14 9 71 1018 10 N 5.5
Ieri h: 22:50 sereno Sereno 16 8 58 1018 10 E/SE 7.4
Ieri h: 22:20 sereno Sereno 17 8 55 1018 10 E/SE 11.1
Ieri h: 21:50 sereno Sereno 18 8 51 1018 10 E 9.3
Ieri h: 21:20 sereno Sereno 18 9 55 1018 10 E 11.1
Ieri h: 20:50 sereno Sereno 20 10 52 1017 10 E 13
Ieri h: 20:20 sereno Sereno 21 11 52 1017 10 E 11.1
Ieri h: 19:50 sereno Sereno 22 12 53 1017 10 E 11.1
Ieri h: 19:20 sereno Sereno 24 11 43 1017 10 E 7.4
Ieri h: 18:50 sereno Sereno 25 11 41 1017 10 E 9.3
Ieri h: 18:20 sereno Sereno 25 12 44 1017 10 E 11.1
Ieri h: 17:50 sereno Sereno 26 11 39 1017 10 E 9.3
Ieri h: 17:20 sereno Sereno 26 12 41 1018 10 E/SE 9.3
Ieri h: 16:50 sereno Sereno 26 12 41 1018 10 E/NE 9.3
Ieri h: 16:20 sereno Sereno 26 11 39 1018 10 E/SE 9.3
Ieri h: 15:50 sereno Sereno 26 9 34 1018 10 N 3.7
Ieri h: 15:20 sereno Sereno 26 11 39 1019 10 N 9.3
Ieri h: 14:50 sereno Sereno 26 9 34 1019 10 E 9.3
Ieri h: 14:20 sereno Sereno 26 11 39 1019 10 SE 7.4
Ieri h: 13:50 sereno Sereno 25 12 44 1020 10 N 5.5
Ieri h: 13:20 sereno Sereno 25 12 44 1020 10 N 5.5
Ieri h: 12:50 sereno Sereno 24 13 50 1020 10 N 5.5
Ieri h: 12:20 sereno Sereno 23 14 56 1021 10 N 7.4
Ieri h: 11:50 sereno Sereno 23 13 53 1021 10 N 5.5
Ieri h: 11:20 sereno Sereno 22 12 53 1021 10 N/NO 11.1
Ieri h: 10:20 sereno Sereno 21 12 56 1021 10 O/NO 11.1
Ieri h: 09:20 sereno Sereno 19 13 68 1021 10 N 5.5
Ieri h: 08:20 sereno Sereno 17 11 67 1021 10 SO 7.4
Ieri h: 07:20 sereno Sereno 14 10 76 1020 10 S/SO 9.3
Ieri h: 06:20 sereno Sereno 13 9 76 1020 10 SO 11.1
Ieri h: 05:50 sereno Sereno 13 9 76 1020 10 S/SO 11.1
Ieri h: 05:20 sereno Sereno 13 9 76 1020 10 SO 9.3
Ieri h: 04:50 sereno Sereno 13 9 76 1020 10 O/SO 9.3